Time;durP1;ratioP1;P1;durP2;ratioP2;P2;SDS_P1;SDS_P2;PMS_P1;PMS_P2;Temp;Humidity;BMP_temperature;BMP_pressure;BME280_temperature;BME280_humidity;BME280_pressure;Samples;Min_cycle;Max_cycle;Signal;HPM_P1;HPM_P2
2022/05/31 00:01:33;;;;;;;3.20;2.50;;;;;10.30;96032.00;;;;8409771;28;20250;-67
2022/05/31 00:05:37;;;;;;;2.80;2.53;;;;;10.20;96023.00;;;;8406928;28;20661;-65
2022/05/31 00:09:40;;;;;;;5.13;2.43;;;;;10.00;96028.00;;;;8411700;28;20230;-65
2022/05/31 00:13:43;;;;;;;5.47;2.63;;;;;9.80;96025.00;;;;8406131;28;20222;-66
2022/05/31 00:17:48;;;;;;;3.17;2.83;;;;;9.70;96026.00;;;;8409872;28;20324;-66
2022/05/31 00:21:54;;;;;;;9.17;2.83;;;;;9.30;96031.00;;;;8411611;28;20711;-66
2022/05/31 00:25:57;;;;;;;7.60;2.83;;;;;8.90;96023.00;;;;8410433;28;20215;-66
2022/05/31 00:30:00;;;;;;;3.37;2.97;;;;;8.70;96025.00;;;;8410383;28;20223;-66
2022/05/31 00:34:05;;;;;;;2.90;2.70;;;;;8.50;96033.00;;;;8413148;28;20235;-66
2022/05/31 00:38:10;;;;;;;3.73;2.87;;;;;8.40;96021.00;;;;8414676;28;20306;-66
2022/05/31 00:42:15;;;;;;;3.30;3.00;;;;;8.10;96017.00;;;;8416686;28;20310;-68
2022/05/31 00:46:21;;;;;;;4.77;3.33;;;;;8.00;96016.00;;;;8416678;28;20680;-67
2022/05/31 00:50:31;;;;;;;4.63;2.80;;;;;7.90;96012.00;;;;8415505;28;20238;-67
2022/05/31 00:54:39;;;;;;;5.23;2.80;;;;;7.80;96021.00;;;;8412966;28;20760;-66
2022/05/31 00:58:53;;;;;;;4.80;3.40;;;;;7.70;96012.00;;;;8417232;28;20227;-66
2022/05/31 01:02:56;;;;;;;5.03;3.50;;;;;7.60;96020.00;;;;8415052;28;20568;-67
2022/05/31 01:07:02;;;;;;;3.57;3.27;;;;;7.50;96014.00;;;;8416813;28;20276;-66
2022/05/31 01:11:06;;;;;;;4.97;3.53;;;;;7.50;96017.00;;;;8417778;28;20229;-66
2022/05/31 01:15:10;;;;;;;5.17;3.50;;;;;7.50;96026.00;;;;8411329;28;20222;-65
2022/05/31 01:19:55;;;;;;;4.53;3.50;;;;;7.50;96027.00;;;;8416516;28;20298;-66
2022/05/31 01:23:43;;;;;;;4.83;3.47;;;;;7.40;96035.00;;;;8414302;28;20232;-65
2022/05/31 01:27:51;;;;;;;6.67;3.30;;;;;7.30;96034.00;;;;8415025;28;20218;-66
2022/05/31 01:31:58;;;;;;;4.73;3.20;;;;;7.20;96038.00;;;;8410239;28;20326;-66
2022/05/31 01:36:09;;;;;;;3.83;3.40;;;;;7.10;96032.00;;;;8415542;28;20233;-65
2022/05/31 01:40:18;;;;;;;5.40;3.23;;;;;7.00;96038.00;;;;8416069;28;20723;-67
2022/05/31 01:44:24;;;;;;;3.67;3.37;;;;;6.90;96033.00;;;;8414766;28;20235;-67
2022/05/31 01:48:30;;;;;;;8.30;3.83;;;;;6.90;96031.00;;;;8414637;28;20887;-67
2022/05/31 01:52:34;;;;;;;4.50;3.57;;;;;6.80;96033.00;;;;8414245;28;20237;-66
2022/05/31 01:56:42;;;;;;;4.57;3.77;;;;;6.70;96030.00;;;;8415914;28;20236;-67
2022/05/31 02:00:46;;;;;;;4.93;3.50;;;;;6.70;96022.00;;;;8416155;28;20238;-66
2022/05/31 02:04:49;;;;;;;5.33;3.37;;;;;6.60;96020.00;;;;8413544;28;20287;-66
2022/05/31 02:08:52;;;;;;;6.00;3.73;;;;;6.40;96011.00;;;;8415963;28;20221;-66
2022/05/31 02:12:57;;;;;;;6.63;4.27;;;;;6.30;96015.00;;;;8414048;28;20691;-66
2022/05/31 02:17:00;;;;;;;6.07;4.30;;;;;6.30;96020.00;;;;8413385;28;20234;-65
2022/05/31 02:21:03;;;;;;;4.67;3.50;;;;;6.30;96032.00;;;;8409375;28;20224;-66
2022/05/31 02:25:08;;;;;;;7.90;3.80;;;;;6.20;96022.00;;;;8410459;28;20253;-66
2022/05/31 02:29:17;;;;;;;4.40;3.77;;;;;6.20;96020.00;;;;8410807;28;20746;-66
2022/05/31 02:33:20;;;;;;;4.83;3.77;;;;;6.10;96016.00;;;;8414006;28;20225;-65
2022/05/31 02:37:23;;;;;;;4.00;3.60;;;;;6.00;96015.00;;;;8416245;28;20227;-66
2022/05/31 02:41:27;;;;;;;5.90;4.00;;;;;6.00;96011.00;;;;8415712;28;20327;-67
2022/05/31 02:45:31;;;;;;;4.33;3.80;;;;;5.90;96015.00;;;;8411994;28;20347;-66
2022/05/31 02:49:35;;;;;;;5.20;4.07;;;;;5.90;96014.00;;;;8413742;28;20897;-66
2022/05/31 02:53:38;;;;;;;6.77;4.00;;;;;5.90;96014.00;;;;8411253;28;20237;-66
2022/05/31 02:57:42;;;;;;;7.80;4.70;;;;;5.80;96014.00;;;;8412158;28;20236;-65
2022/05/31 03:01:49;;;;;;;6.47;4.50;;;;;5.80;96015.00;;;;8453766;22;20259;-67
2022/05/31 03:05:52;;;;;;;7.80;4.23;;;;;5.80;96023.00;;;;8467575;27;20234;-66
2022/05/31 03:09:55;;;;;;;8.30;4.30;;;;;5.70;96020.00;;;;8470874;27;20218;-66
2022/05/31 03:14:03;;;;;;;4.40;4.00;;;;;5.60;96021.00;;;;8467628;27;20231;-66
2022/05/31 03:18:10;;;;;;;7.80;4.60;;;;;5.60;96019.00;;;;8477677;27;21087;-67
2022/05/31 03:22:19;;;;;;;4.97;4.23;;;;;5.60;96033.00;;;;8475630;27;20704;-67
2022/05/31 03:26:24;;;;;;;6.90;4.43;;;;;5.60;96029.00;;;;8465088;27;20673;-66
2022/05/31 03:30:29;;;;;;;5.80;4.23;;;;;5.60;96030.00;;;;8474458;27;20659;-66
2022/05/31 03:34:34;;;;;;;5.93;4.30;;;;;5.50;96026.00;;;;8480712;27;20259;-66
2022/05/31 03:38:37;;;;;;;4.63;4.13;;;;;5.50;96023.00;;;;8480300;27;20234;-67
2022/05/31 03:42:41;;;;;;;7.57;4.50;;;;;5.50;96031.00;;;;8468668;27;20230;-66
2022/05/31 03:46:47;;;;;;;5.30;4.20;;;;;5.50;96037.00;;;;8469207;27;20888;-66
2022/05/31 03:51:03;;;;;;;5.03;4.37;;;;;5.60;96037.00;;;;8455220;27;20235;-67
2022/05/31 03:55:06;;;;;;;7.00;4.73;;;;;5.80;96042.00;;;;8471774;27;20256;-66
2022/05/31 03:59:10;;;;;;;8.87;4.67;;;;;5.90;96039.00;;;;8461975;28;20233;-67
2022/05/31 04:03:13;;;;;;;7.43;4.80;;;;;6.20;96047.00;;;;8472107;28;20919;-68
2022/05/31 04:07:17;;;;;;;5.10;4.20;;;;;6.60;96057.00;;;;8477786;27;20762;-67
2022/05/31 04:11:21;;;;;;;5.90;4.00;;;;;7.00;96053.00;;;;8473039;27;20226;-66
2022/05/31 04:15:24;;;;;;;4.80;4.13;;;;;7.40;96058.00;;;;8483040;27;20232;-67
2022/05/31 04:19:27;;;;;;;4.10;3.67;;;;;8.00;96067.00;;;;8481076;27;20234;-67
2022/05/31 04:27:53;;;;;;;4.70;3.63;;;;;9.20;96073.00;;;;8480192;27;20220;-65
2022/05/31 04:31:56;;;;;;;5.03;3.53;;;;;9.80;96087.00;;;;8474146;27;20234;-65
2022/05/31 04:36:01;;;;;;;3.50;3.20;;;;;10.10;96095.00;;;;8474025;27;20670;-64
2022/05/31 04:40:07;;;;;;;3.60;3.30;;;;;10.60;96086.00;;;;8476307;27;20694;-66
2022/05/31 04:44:10;;;;;;;6.57;3.80;;;;;11.20;96077.00;;;;8470771;27;20232;-65
2022/05/31 04:48:13;;;;;;;4.00;3.63;;;;;11.70;96074.00;;;;8474671;27;20225;-66
2022/05/31 04:52:16;;;;;;;10.20;3.93;;;;;12.30;96075.00;;;;8474962;27;20257;-66
2022/05/31 04:56:21;;;;;;;7.50;3.30;;;;;12.90;96078.00;;;;8463265;27;20282;-65
2022/05/31 05:00:25;;;;;;;7.50;4.00;;;;;13.50;96079.00;;;;8467033;27;20661;-64
2022/05/31 05:04:29;;;;;;;3.55;3.25;;;;;14.20;96078.00;;;;8465787;27;20228;-65
2022/05/31 05:08:33;;;;;;;3.50;3.20;;;;;14.20;96079.00;;;;8483430;27;20257;-64
2022/05/31 05:12:38;;;;;;;3.23;2.93;;;;;14.40;96084.00;;;;8480672;27;20230;-65
2022/05/31 05:16:41;;;;;;;3.38;3.08;;;;;14.50;96078.00;;;;8486713;27;20746;-65
2022/05/31 05:20:49;;;;;;;4.63;3.35;;;;;14.70;96084.00;;;;8471269;27;20847;-65
2022/05/31 05:24:52;;;;;;;7.22;3.40;;;;;14.90;96087.00;;;;8477103;27;20215;-65
2022/05/31 05:33:27;;;;;;;4.78;2.83;;;;;15.10;96095.00;;;;8431954;27;20302;-65
2022/05/31 05:37:30;;;;;;;3.03;2.83;;;;;15.20;96106.00;;;;8480229;27;20319;-65
2022/05/31 05:41:33;;;;;;;3.05;2.85;;;;;15.20;96097.00;;;;8477743;27;20350;-66
2022/05/31 05:45:38;;;;;;;3.88;3.28;;;;;15.30;96091.00;;;;8475299;27;20649;-64
2022/05/31 05:49:41;;;;;;;4.10;3.33;;;;;15.60;96105.00;;;;8480877;27;20310;-64
2022/05/31 05:53:45;;;;;;;3.08;2.78;;;;;16.10;96097.00;;;;8478922;27;20234;-65
2022/05/31 05:57:48;;;;;;;2.80;2.60;;;;;16.60;96100.00;;;;8478602;27;20644;-65
2022/05/31 06:01:57;;;;;;;2.90;2.58;;;;;17.30;96098.00;;;;8476057;27;21146;-66
2022/05/31 06:06:23;;;;;;;3.63;2.90;;;;;17.90;96096.00;;;;8475163;27;20286;-66
2022/05/31 06:10:30;;;;;;;2.85;2.55;;;;;18.60;96097.00;;;;8480446;27;20226;-66
2022/05/31 06:14:38;;;;;;;2.60;2.42;;;;;19.00;96092.00;;;;8484831;27;21000;-65
2022/05/31 06:18:47;;;;;;;3.17;2.40;;;;;19.00;96083.00;;;;8482236;27;20222;-65
2022/05/31 06:22:51;;;;;;;3.00;2.75;;;;;18.70;96092.00;;;;8476059;27;20272;-65
2022/05/31 06:26:54;;;;;;;3.35;2.53;;;;;19.10;96089.00;;;;8479486;27;20239;-64
2022/05/31 06:30:57;;;;;;;3.35;2.40;;;;;19.80;96076.00;;;;8476961;27;20252;-63
2022/05/31 06:35:02;;;;;;;2.60;2.40;;;;;20.20;96068.00;;;;8481570;27;20641;-63
2022/05/31 06:39:05;;;;;;;4.38;2.58;;;;;20.70;96074.00;;;;8479704;27;20725;-65
2022/05/31 06:43:08;;;;;;;3.72;2.10;;;;;20.90;96063.00;;;;8473295;27;20264;-64
2022/05/31 06:47:17;;;;;;;3.03;2.38;;;;;20.80;96070.00;;;;8475494;27;20226;-64
2022/05/31 06:59:59;;;;;;;3.80;2.33;;;;;21.20;96079.00;;;;8456061;27;20812;-64
2022/05/31 07:04:03;;;;;;;2.42;2.22;;;;;21.60;96074.00;;;;8481998;27;20238;-64
2022/05/31 07:08:08;;;;;;;3.63;2.35;;;;;21.90;96071.00;;;;8473623;27;20669;-66
2022/05/31 07:12:12;;;;;;;2.63;2.38;;;;;22.00;96075.00;;;;8460594;27;20453;-66
2022/05/31 07:16:15;;;;;;;3.30;2.55;;;;;22.30;96078.00;;;;8469452;27;20324;-67
2022/05/31 07:20:19;;;;;;;3.90;2.97;;;;;22.50;96080.00;;;;8471441;27;20327;-67
2022/05/31 07:24:24;;;;;;;3.65;2.35;;;;;22.80;96084.00;;;;8468098;27;20309;-67
2022/05/31 07:28:29;;;;;;;4.53;2.45;;;;;23.00;96075.00;;;;8474307;27;20326;-67
2022/05/31 07:32:32;;;;;;;2.70;2.20;;;;;23.20;96079.00;;;;8468970;27;20293;-67
2022/05/31 07:36:56;;;;;;;2.13;2.03;;;;;23.40;96074.00;;;;8475393;27;20301;-66
2022/05/31 07:41:00;;;;;;;2.17;2.08;;;;;23.90;96072.00;;;;8465962;27;20229;-67
2022/05/31 07:45:04;;;;;;;1.95;1.80;;;;;24.10;96074.00;;;;8457777;27;20293;-62
2022/05/31 07:49:08;;;;;;;2.03;1.90;;;;;24.20;96070.00;;;;8470280;27;20457;-67
2022/05/31 07:53:11;;;;;;;2.63;1.90;;;;;24.60;96067.00;;;;8476707;27;20225;-65
2022/05/31 08:01:33;;;;;;;1.95;1.75;;;;;25.30;96073.00;;;;8457414;27;20249;-67
2022/05/31 08:05:38;;;;;;;1.30;1.30;;;;;25.50;96075.00;;;;8466042;27;21039;-66
2022/05/31 08:09:41;;;;;;;1.52;1.42;;;;;25.90;96070.00;;;;8458758;28;20214;-65
2022/05/31 08:13:46;;;;;;;2.53;1.65;;;;;25.90;96070.00;;;;8472879;27;20327;-64
2022/05/31 08:17:49;;;;;;;2.45;1.55;;;;;26.30;96072.00;;;;8477401;27;20805;-67
2022/05/31 08:21:52;;;;;;;2.60;1.50;;;;;26.50;96076.00;;;;8472461;27;20395;-65
2022/05/31 08:25:56;;;;;;;1.52;1.42;;;;;26.50;96074.00;;;;8473389;27;20236;-64
2022/05/31 08:30:01;;;;;;;6.35;1.92;;;;;26.40;96078.00;;;;8467596;27;20211;-64
2022/05/31 08:34:06;;;;;;;2.25;2.05;;;;;26.50;96072.00;;;;8471104;27;20230;-65
2022/05/31 08:38:10;;;;;;;1.70;1.60;;;;;26.70;96079.00;;;;8479782;27;20218;-65
2022/05/31 08:42:16;;;;;;;1.65;1.63;;;;;27.20;96077.00;;;;8474009;28;20260;-65
2022/05/31 08:46:32;;;;;;;1.70;1.50;;;;;27.50;96069.00;;;;8474293;27;20556;-64
2022/05/31 08:59:39;;;;;;;2.53;1.65;;;;;28.10;96058.00;;;;8475533;27;20214;-65
2022/05/31 09:03:47;;;;;;;1.83;1.70;;;;;28.10;96058.00;;;;8483335;27;20321;-66
2022/05/31 09:07:54;;;;;;;1.67;1.58;;;;;28.40;96057.00;;;;8486083;27;20257;-64
2022/05/31 09:12:04;;;;;;;2.45;1.73;;;;;28.90;96051.00;;;;8482520;27;20225;-66
2022/05/31 09:16:11;;;;;;;1.50;1.40;;;;;29.20;96039.00;;;;8483013;27;20304;-65
2022/05/31 09:20:19;;;;;;;2.17;2.05;;;;;29.60;96042.00;;;;8479203;27;21010;-65
2022/05/31 09:24:23;;;;;;;1.75;1.65;;;;;29.60;96041.00;;;;8473138;27;20221;-66
2022/05/31 09:28:34;;;;;;;1.92;1.80;;;;;29.50;96038.00;;;;8484614;27;20329;-66
2022/05/31 09:33:06;;;;;;;2.97;2.00;;;;;29.60;96035.00;;;;8479815;27;20233;-65
2022/05/31 09:37:24;;;;;;;1.95;1.85;;;;;30.00;96031.00;;;;8474313;27;20241;-65
2022/05/31 09:41:32;;;;;;;1.77;1.67;;;;;30.20;96030.00;;;;8477767;27;20793;-66
2022/05/31 09:45:41;;;;;;;1.70;1.60;;;;;30.60;96030.00;;;;8471241;27;20230;-66
2022/05/31 09:49:47;;;;;;;1.65;1.48;;;;;30.90;96027.00;;;;8479214;27;20222;-66
2022/05/31 09:58:23;;;;;;;1.90;1.80;;;;;31.70;96018.00;;;;8464596;27;20252;-66
2022/05/31 10:02:30;;;;;;;2.83;2.10;;;;;31.60;96017.00;;;;8465588;27;20704;-66
2022/05/31 10:06:34;;;;;;;1.50;1.40;;;;;31.50;96018.00;;;;8463129;27;20222;-66
2022/05/31 10:10:47;;;;;;;1.80;1.70;;;;;31.30;96012.00;;;;8472780;27;20279;-66
2022/05/31 10:14:52;;;;;;;1.58;1.58;;;;;31.40;96004.00;;;;8470460;27;20253;-67
2022/05/31 10:18:57;;;;;;;1.85;1.58;;;;;32.10;96002.00;;;;8465654;27;20232;-66
2022/05/31 10:23:03;;;;;;;1.55;1.45;;;;;32.00;96006.00;;;;8468740;27;20291;-66
2022/05/31 10:27:12;;;;;;;2.15;1.55;;;;;32.00;95997.00;;;;8475304;27;20230;-66
2022/05/31 10:31:21;;;;;;;1.60;1.50;;;;;32.10;95996.00;;;;8465672;27;20246;-67
2022/05/31 10:35:28;;;;;;;1.60;1.50;;;;;32.30;95989.00;;;;8463942;27;20233;-66
2022/05/31 10:39:34;;;;;;;3.40;1.80;;;;;32.20;95981.00;;;;8462160;27;20219;-67
2022/05/31 10:43:50;;;;;;;2.63;1.90;;;;;32.30;95985.00;;;;8467027;27;20287;-67
2022/05/31 10:47:56;;;;;;;2.53;1.67;;;;;32.10;95979.00;;;;8462296;27;20243;-68
2022/05/31 10:52:07;;;;;;;1.83;1.73;;;;;32.30;95972.00;;;;8468179;27;20305;-67
2022/05/31 10:56:16;;;;;;;1.65;1.55;;;;;32.30;95975.00;;;;8467848;27;20312;-67
2022/05/31 11:00:24;;;;;;;1.60;1.50;;;;;32.40;95966.00;;;;8473464;27;20302;-66
2022/05/31 11:04:49;;;;;;;1.58;1.48;;;;;32.60;95972.00;;;;8463202;27;20238;-66
2022/05/31 11:13:35;;;;;;;1.92;1.60;;;;;32.90;95976.00;;;;8462297;27;20246;-68
2022/05/31 11:17:54;;;;;;;2.85;1.63;;;;;32.70;95981.00;;;;8471570;27;20218;-67
2022/05/31 11:22:12;;;;;;;1.40;1.33;;;;;32.50;95971.00;;;;8476629;27;20242;-66
2022/05/31 11:26:33;;;;;;;2.10;1.73;;;;;32.90;95972.00;;;;8468997;27;20323;-67
2022/05/31 11:31:12;;;;;;;1.88;1.75;;;;;33.00;95964.00;;;;8476017;27;20230;-67
2022/05/31 11:35:28;;;;;;;1.85;1.70;;;;;33.30;95963.00;;;;8482187;27;20654;-68
2022/05/31 11:39:58;;;;;;;1.67;1.58;;;;;33.30;95960.00;;;;8469833;27;20226;-66
2022/05/31 11:44:31;;;;;;;1.42;1.33;;;;;33.00;95951.00;;;;8465251;27;21015;-64
2022/05/31 11:48:56;;;;;;;1.33;1.30;;;;;33.20;95951.00;;;;8469837;27;20687;-65
2022/05/31 11:53:32;;;;;;;2.60;1.70;;;;;33.00;95953.00;;;;8465406;27;20225;-64
2022/05/31 11:57:48;;;;;;;2.53;1.63;;;;;33.10;95954.00;;;;8464354;28;20260;-65
2022/05/31 12:01:56;;;;;;;3.78;1.50;;;;;33.40;95954.00;;;;8463885;27;20236;-64
2022/05/31 12:06:07;;;;;;;2.90;1.55;;;;;33.40;95941.00;;;;8467987;28;20225;-66
2022/05/31 12:10:18;;;;;;;1.33;1.30;;;;;33.80;95936.00;;;;8473895;28;20236;-66
2022/05/31 12:14:23;;;;;;;1.80;1.70;;;;;33.80;95927.00;;;;8471726;28;20240;-66
2022/05/31 12:18:31;;;;;;;2.63;1.60;;;;;34.00;95921.00;;;;8462445;28;20784;-66
2022/05/31 12:22:40;;;;;;;2.05;1.20;;;;;33.80;95938.00;;;;8463265;28;20231;-66
2022/05/31 12:26:54;;;;;;;2.80;1.40;;;;;32.80;95941.00;;;;8460522;28;20240;-67
2022/05/31 12:31:06;;;;;;;2.30;1.50;;;;;32.20;95934.00;;;;8467327;27;20220;-67
2022/05/31 12:35:12;;;;;;;1.60;1.50;;;;;32.50;95919.00;;;;8462980;27;20673;-67
2022/05/31 12:39:27;;;;;;;3.13;1.48;;;;;32.20;95918.00;;;;8467267;27;20698;-66
2022/05/31 12:43:55;;;;;;;2.47;1.58;;;;;31.30;95916.00;;;;8471655;27;20234;-66
2022/05/31 12:48:00;;;;;;;2.17;1.63;;;;;31.10;95910.00;;;;8473646;27;20226;-67
2022/05/31 12:56:59;;;;;;;1.65;1.50;;;;;30.00;95908.00;;;;8471830;27;20548;-68
2022/05/31 13:01:45;;;;;;;2.05;1.67;;;;;29.60;95901.00;;;;8476838;27;20623;-67
2022/05/31 13:06:04;;;;;;;1.63;1.52;;;;;29.90;95904.00;;;;8475748;27;20693;-67
2022/05/31 13:19:34;;;;;;;1.63;1.48;;;;;30.40;95903.00;;;;8470300;27;20210;-66
2022/05/31 13:19:41;;;;;;;1.98;1.30;;;;;29.80;95897.00;;;;8414987;27;20301;-67
2022/05/31 13:23:47;;;;;;;1.40;1.30;;;;;29.40;95895.00;;;;8482327;27;20936;-68
2022/05/31 13:27:52;;;;;;;1.27;1.17;;;;;29.50;95886.00;;;;8471647;27;20221;-67
2022/05/31 13:31:58;;;;;;;1.55;1.40;;;;;29.80;95881.00;;;;8472294;27;20214;-65
2022/05/31 13:36:20;;;;;;;2.20;1.30;;;;;29.80;95883.00;;;;8483021;27;20313;-66
2022/05/31 13:40:31;;;;;;;3.00;1.60;;;;;30.10;95871.00;;;;8467966;27;20213;-65
2022/05/31 13:44:37;;;;;;;6.22;1.70;;;;;30.50;95863.00;;;;8478497;27;20826;-65
2022/05/31 13:48:41;;;;;;;2.10;1.38;;;;;30.20;95871.00;;;;8468454;27;20218;-66
2022/05/31 13:52:49;;;;;;;4.22;1.73;;;;;29.80;95867.00;;;;8470407;27;20245;-66
2022/05/31 13:56:55;;;;;;;3.45;1.40;;;;;29.60;95863.00;;;;8474114;27;20234;-66
2022/05/31 14:00:59;;;;;;;2.60;1.25;;;;;29.30;95857.00;;;;8470495;27;20226;-67
2022/05/31 14:05:03;;;;;;;1.40;1.30;;;;;29.30;95859.00;;;;8474520;27;20228;-67
2022/05/31 14:09:12;;;;;;;2.50;1.30;;;;;29.40;95860.00;;;;8478331;27;20681;-67
2022/05/31 14:13:24;;;;;;;2.13;1.50;;;;;29.00;95861.00;;;;8476169;27;20232;-68
2022/05/31 14:17:36;;;;;;;1.52;1.40;;;;;28.70;95857.00;;;;8471808;27;20232;-67
2022/05/31 14:21:42;;;;;;;2.40;1.25;;;;;28.70;95859.00;;;;8467064;27;20696;-67
2022/05/31 14:25:49;;;;;;;2.15;1.40;;;;;28.50;95842.00;;;;8474320;27;20230;-67
2022/05/31 14:30:04;;;;;;;4.03;1.40;;;;;28.10;95837.00;;;;8476460;27;20257;-67
2022/05/31 14:34:21;;;;;;;1.35;1.27;;;;;28.10;95846.00;;;;8467577;27;20213;-68
2022/05/31 14:38:27;;;;;;;1.73;1.55;;;;;27.90;95839.00;;;;8476348;27;20232;-68
2022/05/31 14:42:37;;;;;;;1.42;1.33;;;;;27.50;95842.00;;;;8480315;27;20314;-69
2022/05/31 14:46:40;;;;;;;3.80;1.30;;;;;27.10;95846.00;;;;8472158;27;20232;-67
2022/05/31 14:50:55;;;;;;;1.55;1.45;;;;;26.80;95850.00;;;;8467530;27;20272;-66
2022/05/31 14:55:07;;;;;;;1.98;1.60;;;;;26.50;95847.00;;;;8465126;27;20233;-67
2022/05/31 14:59:20;;;;;;;1.98;1.40;;;;;26.50;95855.00;;;;8473250;27;20301;-66
2022/05/31 15:03:28;;;;;;;2.38;1.33;;;;;26.50;95855.00;;;;8474800;27;20226;-66
2022/05/31 15:07:50;;;;;;;1.40;1.30;;;;;26.40;95852.00;;;;8463139;27;20771;-68
2022/05/31 15:20:54;;;;;;;2.95;1.30;;;;;26.00;95873.00;;;;8468348;27;20954;-68
2022/05/31 15:24:58;;;;;;;1.50;1.40;;;;;25.50;95887.00;;;;8467787;27;20250;-67
2022/05/31 15:29:01;;;;;;;1.55;1.52;;;;;24.40;95874.00;;;;8475579;27;20218;-66
2022/05/31 15:33:13;;;;;;;6.15;1.83;;;;;23.70;95887.00;;;;8470376;27;20274;-67
2022/05/31 15:37:18;;;;;;;2.72;2.10;;;;;23.20;95904.00;;;;8480175;27;20242;-69
2022/05/31 15:41:21;;;;;;;3.25;1.70;;;;;23.00;95888.00;;;;8473354;27;20213;-67
2022/05/31 15:45:24;;;;;;;1.88;1.77;;;;;22.70;95897.00;;;;8479911;27;20305;-69
2022/05/31 15:49:29;;;;;;;4.53;1.60;;;;;22.30;95901.00;;;;8473154;27;20300;-67
2022/05/31 15:53:33;;;;;;;2.20;1.98;;;;;21.90;95911.00;;;;8478770;27;20317;-72
2022/05/31 15:57:38;;;;;;;1.92;1.83;;;;;21.20;95923.00;;;;8477024;27;20217;-71
2022/05/31 16:01:41;;;;;;;3.42;2.60;;;;;20.30;95913.00;;;;8463384;28;20784;-73
2022/05/31 16:05:46;;;;;;;10.50;2.80;;;;;19.50;95927.00;;;;8462017;28;20234;-73
2022/05/31 16:09:51;;;;;;;6.70;2.63;;;;;19.00;95929.00;;;;8476336;27;20308;-75
2022/05/31 16:13:56;;;;;;;6.25;2.83;;;;;18.40;95919.00;;;;8486440;27;20225;-73
2022/05/31 16:17:59;;;;;;;5.43;2.75;;;;;18.30;95932.00;;;;8470963;27;20226;-73
2022/05/31 16:22:05;;;;;;;3.80;2.88;;;;;18.00;95928.00;;;;8471961;27;20239;-73
2022/05/31 16:26:08;;;;;;;3.00;2.80;;;;;17.90;95929.00;;;;8478624;27;20228;-74
2022/05/31 16:30:14;;;;;;;5.57;3.00;;;;;17.80;95911.00;;;;8472568;27;20301;-76
2022/05/31 16:34:21;;;;;;;3.97;3.17;;;;;17.70;95907.00;;;;8469208;27;20229;-74
2022/05/31 16:43:00;;;;;;;7.03;3.30;;;;;17.60;95872.00;;;;8320740;28;20240;-72
2022/05/31 16:47:04;;;;;;;5.72;3.40;;;;;17.80;95868.00;;;;8396445;27;21051;-72
2022/05/31 16:51:10;;;;;;;5.47;3.13;;;;;17.80;95870.00;;;;8475326;27;20233;-71
2022/05/31 16:55:19;;;;;;;5.82;3.45;;;;;17.90;95868.00;;;;8474281;27;20220;-71
2022/05/31 16:59:24;;;;;;;5.95;3.15;;;;;17.90;95883.00;;;;8476472;27;20226;-73
2022/05/31 17:03:27;;;;;;;3.33;3.03;;;;;17.80;95879.00;;;;8482948;27;20253;-71
2022/05/31 17:16:14;;;;;;;5.50;2.95;;;;;17.80;95887.00;;;;8469443;27;20222;-69
2022/05/31 17:20:20;;;;;;;2.83;2.60;;;;;17.60;95889.00;;;;8474901;27;20218;-70
2022/05/31 17:24:23;;;;;;;4.80;2.88;;;;;17.50;95893.00;;;;8472882;27;20313;-69
2022/05/31 17:28:28;;;;;;;3.10;2.90;;;;;17.50;95893.00;;;;8478065;27;21837;-70
2022/05/31 17:32:32;;;;;;;3.50;3.20;;;;;17.50;95896.00;;;;8470502;27;20244;-68
2022/05/31 17:36:44;;;;;;;3.33;3.05;;;;;17.40;95904.00;;;;8475747;27;20907;-70
2022/05/31 17:40:48;;;;;;;3.50;3.28;;;;;17.50;95901.00;;;;8469909;27;20217;-68
2022/05/31 17:44:52;;;;;;;4.97;3.33;;;;;17.60;95907.00;;;;8472689;27;20723;-70
2022/05/31 17:48:56;;;;;;;3.65;3.38;;;;;17.80;95920.00;;;;8469014;27;20226;-67
2022/05/31 17:52:59;;;;;;;3.35;3.08;;;;;17.90;95919.00;;;;8474654;27;20241;-69
2022/05/31 17:57:04;;;;;;;5.38;3.22;;;;;17.90;95928.00;;;;8467623;27;20818;-68
2022/05/31 18:01:09;;;;;;;5.35;3.50;;;;;18.00;95935.00;;;;8465269;27;20651;-71
2022/05/31 18:05:12;;;;;;;7.30;3.72;;;;;17.90;95944.00;;;;8465634;27;20227;-70
2022/05/31 18:09:21;;;;;;;5.68;3.72;;;;;18.00;95953.00;;;;8469870;27;20896;-70
2022/05/31 18:13:25;;;;;;;4.70;3.85;;;;;18.00;95961.00;;;;8466155;27;20225;-71
2022/05/31 18:17:31;;;;;;;6.32;3.97;;;;;17.80;95989.00;;;;8464718;27;20224;-69
2022/05/31 18:21:36;;;;;;;4.63;3.70;;;;;17.50;95995.00;;;;8470830;27;20692;-70
2022/05/31 18:25:41;;;;;;;6.25;4.32;;;;;17.40;95986.00;;;;8458316;27;20295;-69
2022/05/31 18:29:48;;;;;;;5.00;3.47;;;;;17.40;95985.00;;;;8466128;27;20230;-69
2022/05/31 18:33:53;;;;;;;6.82;5.63;;;;;17.30;95990.00;;;;8466424;27;20253;-70
2022/05/31 18:42:21;;;;;;;6.18;4.07;;;;;17.20;96003.00;;;;8467543;27;20210;-71
2022/05/31 18:46:26;;;;;;;6.70;4.10;;;;;17.20;95997.00;;;;8463288;27;20219;-69
2022/05/31 18:50:31;;;;;;;4.53;3.80;;;;;17.20;96011.00;;;;8468989;27;20636;-73
2022/05/31 18:54:34;;;;;;;4.97;4.30;;;;;17.00;96003.00;;;;8471080;27;20696;-73
2022/05/31 18:58:40;;;;;;;5.80;4.30;;;;;16.90;96008.00;;;;8458069;27;20228;-70
2022/05/31 19:02:43;;;;;;;5.07;4.22;;;;;16.90;96021.00;;;;8462866;27;20226;-70
2022/05/31 19:06:49;;;;;;;10.55;4.57;;;;;16.80;96023.00;;;;8470835;27;20314;-71
2022/05/31 19:10:54;;;;;;;4.68;4.28;;;;;16.70;96039.00;;;;8466821;27;20234;-68
2022/05/31 19:14:57;;;;;;;7.75;4.70;;;;;16.70;96054.00;;;;8465328;27;20229;-70
2022/05/31 19:19:01;;;;;;;5.05;4.55;;;;;16.70;96069.00;;;;8468747;27;20226;-68
2022/05/31 19:23:06;;;;;;;4.88;4.30;;;;;16.60;96074.00;;;;8456640;27;20239;-68
2022/05/31 19:27:09;;;;;;;9.13;4.25;;;;;16.70;96078.00;;;;8464347;27;20657;-69
2022/05/31 19:31:16;;;;;;;4.65;4.22;;;;;16.60;96087.00;;;;8467785;27;20222;-72
2022/05/31 19:35:21;;;;;;;6.15;4.85;;;;;16.60;96094.00;;;;8465464;27;20699;-72
2022/05/31 19:39:26;;;;;;;4.90;4.45;;;;;16.40;96111.00;;;;8463229;27;20675;-75
2022/05/31 19:43:31;;;;;;;11.45;6.50;;;;;16.10;96119.00;;;;8459292;27;20225;-76
2022/05/31 19:47:34;;;;;;;14.40;6.13;;;;;16.00;96129.00;;;;8465854;27;20245;-75
2022/05/31 19:51:37;;;;;;;11.45;6.75;;;;;16.00;96134.00;;;;8472290;27;20315;-72
2022/05/31 19:55:42;;;;;;;11.68;8.45;;;;;16.00;96122.00;;;;8467313;27;20233;-73
2022/05/31 19:59:45;;;;;;;7.28;5.40;;;;;16.00;96121.00;;;;8462459;27;20583;-73
2022/05/31 20:03:48;;;;;;;8.38;5.32;;;;;15.90;96131.00;;;;8465875;28;20222;-73
2022/05/31 20:07:52;;;;;;;6.60;5.82;;;;;15.80;96124.00;;;;8466645;27;20217;-73
2022/05/31 20:11:59;;;;;;;9.18;5.72;;;;;15.70;96106.00;;;;8458296;27;20237;-77
2022/05/31 20:16:02;;;;;;;17.30;6.28;;;;;15.60;96103.00;;;;8466557;27;20305;-74
2022/05/31 20:20:10;;;;;;;7.88;6.32;;;;;15.60;96092.00;;;;8467829;28;20687;-73
2022/05/31 20:24:13;;;;;;;9.93;5.35;;;;;15.40;96084.00;;;;8474020;27;20317;-73
2022/05/31 20:28:19;;;;;;;11.85;4.88;;;;;15.20;96083.00;;;;8466826;27;20230;-76
2022/05/31 20:32:22;;;;;;;8.70;5.82;;;;;15.10;96060.00;;;;8477778;28;20682;-78
2022/05/31 20:36:25;;;;;;;8.77;6.43;;;;;15.00;96067.00;;;;8465896;27;20868;-77
2022/05/31 20:40:30;;;;;;;7.93;6.60;;;;;14.90;96065.00;;;;8465562;28;20324;-76
2022/05/31 20:44:35;;;;;;;13.50;6.53;;;;;14.90;96073.00;;;;8474428;28;20235;-77
2022/05/31 20:48:38;;;;;;;12.88;6.75;;;;;14.90;96060.00;;;;8468401;27;20240;-77
2022/05/31 20:52:44;;;;;;;16.60;8.27;;;;;14.80;96059.00;;;;8468041;27;20230;-77
2022/05/31 20:56:48;;;;;;;14.93;7.47;;;;;14.80;96071.00;;;;8485053;27;20308;-76
2022/05/31 21:00:55;;;;;;;9.98;7.25;;;;;14.70;96060.00;;;;8481968;27;20781;-77
2022/05/31 21:04:58;;;;;;;10.52;7.45;;;;;14.60;96067.00;;;;8483971;27;20233;-77
2022/05/31 21:09:06;;;;;;;11.02;7.65;;;;;14.50;96075.00;;;;8482227;27;20320;-78
2022/05/31 21:13:12;;;;;;;15.27;7.60;;;;;14.40;96073.00;;;;8462551;27;20597;-79
2022/05/31 21:17:17;;;;;;;8.88;7.32;;;;;14.30;96067.00;;;;8483554;27;20324;-78
2022/05/31 21:21:27;;;;;;;9.82;7.50;;;;;14.20;96069.00;;;;8473271;27;20300;-78
2022/05/31 21:25:34;;;;;;;13.13;7.47;;;;;14.00;96075.00;;;;8476471;27;20349;-80
2022/05/31 21:29:44;;;;;;;13.95;7.80;;;;;13.90;96080.00;;;;8476785;27;20250;-79
2022/05/31 21:33:48;;;;;;;12.15;7.22;;;;;13.80;96082.00;;;;8479345;27;20313;-78
2022/05/31 21:37:52;;;;;;;17.23;7.75;;;;;13.80;96083.00;;;;8476297;27;20226;-78
2022/05/31 21:41:55;;;;;;;9.95;7.35;;;;;13.80;96085.00;;;;8475335;27;20311;-77
2022/05/31 21:45:58;;;;;;;15.00;8.10;;;;;13.70;96090.00;;;;8476561;27;20569;-79
2022/05/31 21:50:03;;;;;;;14.85;8.15;;;;;13.50;96081.00;;;;8480788;27;20263;-78
2022/05/31 21:54:06;;;;;;;12.68;7.93;;;;;13.50;96090.00;;;;8480961;27;20225;-79